Time;durP1;ratioP1;P1;durP2;ratioP2;P2;SDS_P1;SDS_P2;PMS_P1;PMS_P2;Temp;Humidity;BMP_temperature;BMP_pressure;BME280_temperature;BME280_humidity;BME280_pressure;Samples;Min_cycle;Max_cycle;Signal;HPM_P1;HPM_P2
2022/03/14 00:01:20;;;;;;;8.02;3.30;;;10.30;99.90;;;;;;5058654;28;20056;-61
2022/03/14 00:03:50;;;;;;;5.45;3.13;;;10.30;99.90;;;;;;5053113;28;20040;-61
2022/03/14 00:06:17;;;;;;;5.60;3.53;;;10.30;99.90;;;;;;5053257;28;20076;-61
2022/03/14 00:08:44;;;;;;;6.43;3.03;;;10.30;99.90;;;;;;5055493;28;20025;-61
2022/03/14 00:11:15;;;;;;;6.85;3.30;;;10.40;99.90;;;;;;5052937;28;20024;-62
2022/03/14 00:13:46;;;;;;;5.13;3.13;;;10.40;99.90;;;;;;5067174;28;20017;-62
2022/03/14 00:16:32;;;;;;;3.78;2.90;;;10.30;99.90;;;;;;5054032;28;20029;-63
2022/03/14 00:18:58;;;;;;;8.93;3.58;;;10.20;99.90;;;;;;5052580;28;20501;-61
2022/03/14 00:21:25;;;;;;;8.43;4.05;;;10.10;99.90;;;;;;5052965;28;20036;-61
2022/03/14 00:23:56;;;;;;;6.40;3.22;;;10.00;99.90;;;;;;5050692;28;20427;-61
2022/03/14 00:26:22;;;;;;;5.15;2.90;;;9.90;99.90;;;;;;5052220;28;20025;-61
2022/03/14 00:28:51;;;;;;;5.75;3.30;;;9.80;99.90;;;;;;5052638;28;20493;-61
2022/03/14 00:31:16;;;;;;;9.05;3.05;;;9.80;99.90;;;;;;5051053;28;20171;-62
2022/03/14 00:33:42;;;;;;;5.40;3.38;;;9.80;99.90;;;;;;5052094;28;20484;-61
2022/03/14 00:36:09;;;;;;;4.40;2.33;;;9.80;99.90;;;;;;5052048;28;20044;-61
2022/03/14 00:38:38;;;;;;;9.50;3.05;;;9.80;99.90;;;;;;5051689;28;20418;-62
2022/03/14 00:41:05;;;;;;;4.30;2.70;;;9.90;99.90;;;;;;5056567;28;20037;-60
2022/03/14 00:43:32;;;;;;;4.47;3.35;;;10.00;99.90;;;;;;5052730;28;20033;-61
2022/03/14 00:45:58;;;;;;;4.45;2.72;;;10.10;99.90;;;;;;5052824;28;20021;-61
2022/03/14 00:48:24;;;;;;;7.53;3.35;;;10.10;99.90;;;;;;5053110;28;20071;-61
2022/03/14 00:50:50;;;;;;;6.43;2.95;;;10.10;99.90;;;;;;5051755;28;20317;-61
2022/03/14 00:53:16;;;;;;;4.32;2.90;;;10.10;99.90;;;;;;5060411;28;20107;-62
2022/03/14 00:55:41;;;;;;;4.63;3.35;;;10.10;99.90;;;;;;5065250;28;20100;-62
2022/03/14 00:58:10;;;;;;;7.05;3.53;;;10.10;99.90;;;;;;5065892;28;20110;-62
2022/03/14 01:00:36;;;;;;;4.55;3.05;;;10.20;99.90;;;;;;5055301;28;20028;-62
2022/03/14 01:03:02;;;;;;;6.28;3.20;;;10.30;99.90;;;;;;5054039;28;20368;-61
2022/03/14 01:05:28;;;;;;;6.47;3.42;;;10.30;99.90;;;;;;5059012;28;20076;-61
2022/03/14 01:07:54;;;;;;;4.05;3.13;;;10.40;99.90;;;;;;5053406;28;20552;-60
2022/03/14 01:10:20;;;;;;;5.15;3.45;;;10.40;99.90;;;;;;5054567;28;20025;-60
2022/03/14 01:12:46;;;;;;;5.05;3.40;;;10.30;99.90;;;;;;5065913;28;20070;-61
2022/03/14 01:15:12;;;;;;;5.82;3.83;;;10.30;99.90;;;;;;5061689;28;20025;-60
2022/03/14 01:17:40;;;;;;;7.25;3.80;;;10.30;99.90;;;;;;5062177;28;20020;-61
2022/03/14 01:20:07;;;;;;;6.07;3.47;;;10.30;99.90;;;;;;5059329;28;20017;-61
2022/03/14 01:22:32;;;;;;;5.28;3.50;;;10.30;99.90;;;;;;5053099;28;20021;-61
2022/03/14 01:24:58;;;;;;;7.65;3.20;;;10.30;99.90;;;;;;5055996;28;20024;-61
2022/03/14 01:27:23;;;;;;;4.88;3.83;;;10.20;99.90;;;;;;5067493;28;20075;-61
2022/03/14 01:29:49;;;;;;;5.63;3.67;;;10.10;99.90;;;;;;5042057;28;20020;-61
2022/03/14 01:32:15;;;;;;;4.85;3.58;;;10.10;99.90;;;;;;5056361;28;20025;-62
2022/03/14 01:34:40;;;;;;;8.27;4.40;;;10.10;99.90;;;;;;5053012;28;20479;-62
2022/03/14 01:37:07;;;;;;;9.45;4.53;;;10.00;99.90;;;;;;5061774;28;20039;-62
2022/03/14 01:39:32;;;;;;;6.70;3.85;;;9.90;99.90;;;;;;5066944;28;20035;-62
2022/03/14 01:41:59;;;;;;;5.20;3.95;;;9.90;99.90;;;;;;5053026;28;20519;-60
2022/03/14 01:44:25;;;;;;;6.78;4.13;;;9.80;99.90;;;;;;5051487;28;20035;-62
2022/03/14 01:46:50;;;;;;;7.32;4.38;;;9.90;99.90;;;;;;5057345;28;20095;-63
2022/03/14 01:49:18;;;;;;;6.82;4.20;;;9.80;99.90;;;;;;5057085;28;20100;-62
2022/03/14 01:51:44;;;;;;;11.05;5.18;;;9.80;99.90;;;;;;5052388;28;20107;-63
2022/03/14 01:54:10;;;;;;;8.57;5.03;;;9.70;99.90;;;;;;5051157;28;20040;-62
2022/03/14 01:56:39;;;;;;;8.40;4.70;;;9.80;99.90;;;;;;5057194;28;20067;-62
2022/03/14 01:59:05;;;;;;;7.18;4.68;;;9.80;99.90;;;;;;5050126;28;20032;-61
2022/03/14 02:01:34;;;;;;;7.82;4.90;;;9.80;99.90;;;;;;5050795;28;20556;-60
2022/03/14 02:04:00;;;;;;;8.23;5.13;;;9.70;99.90;;;;;;5053934;28;20471;-62
2022/03/14 02:06:28;;;;;;;9.55;5.10;;;9.60;99.90;;;;;;5050076;28;20514;-63
2022/03/14 02:08:55;;;;;;;11.48;5.05;;;9.60;99.90;;;;;;5056635;28;20091;-63
2022/03/14 02:11:21;;;;;;;9.10;5.55;;;9.60;99.90;;;;;;5061418;28;20033;-63
2022/03/14 02:13:46;;;;;;;13.60;5.70;;;9.50;99.90;;;;;;5053449;28;20071;-62
2022/03/14 02:16:12;;;;;;;11.05;5.97;;;9.40;99.90;;;;;;5051404;28;20063;-61
2022/03/14 02:18:38;;;;;;;12.32;6.25;;;9.40;99.90;;;;;;5058482;28;20037;-61
2022/03/14 02:21:04;;;;;;;10.93;6.35;;;9.40;99.90;;;;;;5064900;28;20043;-62
2022/03/14 02:23:29;;;;;;;12.32;6.47;;;9.30;99.90;;;;;;5064894;28;20115;-60
2022/03/14 02:25:55;;;;;;;11.43;6.80;;;9.30;99.90;;;;;;5056417;28;20462;-62
2022/03/14 02:28:22;;;;;;;12.43;7.40;;;9.30;99.90;;;;;;5057691;28;20064;-62
2022/03/14 02:30:49;;;;;;;16.02;7.57;;;9.30;99.90;;;;;;5046065;28;20037;-62
2022/03/14 02:33:15;;;;;;;18.77;8.30;;;9.30;99.90;;;;;;5058613;28;20027;-62
2022/03/14 02:35:41;;;;;;;14.82;8.77;;;9.30;99.90;;;;;;5060490;28;20402;-60
2022/03/14 02:38:16;;;;;;;16.02;8.35;;;9.30;99.90;;;;;;5057215;28;20039;-62
2022/03/14 02:40:44;;;;;;;;;;;9.30;99.90;;;;;;5058523;28;20036;-60
2022/03/14 02:43:09;;;;;;;17.33;7.47;;;9.20;99.90;;;;;;5056438;28;19909;-60
2022/03/14 02:45:35;;;;;;;13.27;6.70;;;9.30;99.90;;;;;;5056792;28;20039;-61
2022/03/14 02:48:00;;;;;;;14.88;7.85;;;9.30;99.90;;;;;;5052198;28;20025;-59
2022/03/14 02:50:28;;;;;;;12.88;7.03;;;9.30;99.90;;;;;;5051662;28;20024;-61
2022/03/14 02:52:53;;;;;;;15.35;7.63;;;9.30;99.90;;;;;;5058969;28;20021;-60
2022/03/14 02:55:22;;;;;;;15.70;7.60;;;9.30;99.90;;;;;;5051542;28;20029;-61
2022/03/14 02:57:48;;;;;;;13.40;7.70;;;9.30;99.90;;;;;;5058903;28;20036;-61
2022/03/14 03:00:14;;;;;;;15.80;7.25;;;9.30;99.90;;;;;;5050641;28;20444;-62
2022/03/14 03:02:42;;;;;;;14.82;8.10;;;9.30;99.90;;;;;;5051715;28;20506;-62
2022/03/14 03:05:08;;;;;;;14.88;8.95;;;9.30;99.90;;;;;;5051674;28;20021;-62
2022/03/14 03:07:35;;;;;;;15.93;8.82;;;9.30;99.90;;;;;;5052592;28;20690;-61
2022/03/14 03:10:03;;;;;;;19.75;9.48;;;9.30;99.90;;;;;;5059101;28;20021;-61
2022/03/14 03:12:28;;;;;;;16.95;9.40;;;9.30;99.90;;;;;;5057971;28;20036;-61
2022/03/14 03:14:54;;;;;;;20.35;10.15;;;9.30;99.90;;;;;;5053780;28;20020;-62
2022/03/14 03:17:20;;;;;;;18.90;10.60;;;9.30;99.90;;;;;;5061710;28;20071;-62
2022/03/14 03:19:46;;;;;;;16.80;9.50;;;9.20;99.90;;;;;;5050774;28;20044;-62
2022/03/14 03:22:11;;;;;;;17.38;10.48;;;9.30;99.90;;;;;;5056947;28;20033;-61
2022/03/14 03:24:37;;;;;;;15.07;10.10;;;9.20;99.90;;;;;;5056739;28;20021;-61
2022/03/14 03:27:03;;;;;;;16.85;9.82;;;9.20;99.90;;;;;;5050808;28;20037;-62
2022/03/14 03:29:28;;;;;;;17.13;9.88;;;9.20;99.90;;;;;;5056995;28;20100;-60
2022/03/14 03:31:54;;;;;;;16.17;10.10;;;9.20;99.90;;;;;;5056272;28;20037;-61
2022/03/14 03:34:20;;;;;;;24.42;9.50;;;9.20;99.90;;;;;;5053067;28;20106;-60
2022/03/14 03:36:45;;;;;;;17.17;9.32;;;9.30;99.90;;;;;;5053532;28;20178;-60
2022/03/14 03:39:11;;;;;;;16.65;9.20;;;9.20;99.90;;;;;;5054524;28;20512;-62
2022/03/14 03:41:38;;;;;;;15.55;9.10;;;9.20;99.90;;;;;;5063255;28;20028;-61
2022/03/14 03:44:04;;;;;;;13.52;8.38;;;9.20;99.90;;;;;;5058287;28;20078;-60
2022/03/14 03:46:30;;;;;;;12.63;8.27;;;9.20;99.90;;;;;;5056268;28;20040;-61
2022/03/14 03:48:55;;;;;;;11.82;7.35;;;9.20;99.90;;;;;;5056231;28;20025;-61
2022/03/14 03:51:21;;;;;;;11.40;7.85;;;9.20;99.90;;;;;;5062304;28;20028;-61
2022/03/14 03:53:47;;;;;;;14.90;9.02;;;9.20;99.90;;;;;;5055526;28;20119;-61
2022/03/14 03:56:12;;;;;;;11.35;8.00;;;9.20;99.90;;;;;;5079287;23;20102;-58
2022/03/14 03:58:38;;;;;;;12.95;9.02;;;9.20;99.90;;;;;;5069932;28;20096;-58
2022/03/14 04:01:03;;;;;;;15.02;8.73;;;9.10;99.90;;;;;;5058535;28;20368;-60
2022/03/14 04:03:29;;;;;;;14.27;8.50;;;9.10;99.90;;;;;;5071699;28;20520;-53
2022/03/14 04:05:55;;;;;;;15.70;8.60;;;9.10;99.90;;;;;;5071379;28;20029;-58
2022/03/14 04:08:21;;;;;;;16.35;9.45;;;9.10;99.90;;;;;;5067419;28;20017;-61
2022/03/14 04:10:53;;;;;;;16.92;8.90;;;9.10;99.90;;;;;;5059613;28;20028;-59
2022/03/14 04:13:20;;;;;;;15.68;9.07;;;9.10;99.90;;;;;;5057450;28;20039;-60
2022/03/14 04:15:52;;;;;;;16.80;9.00;;;9.00;99.90;;;;;;5053186;28;20028;-58
2022/03/14 04:18:19;;;;;;;15.18;9.20;;;9.10;99.90;;;;;;5058178;28;20016;-59
2022/03/14 04:20:48;;;;;;;17.73;10.10;;;9.10;99.90;;;;;;5056602;28;20032;-58
2022/03/14 04:23:16;;;;;;;15.85;8.80;;;9.10;99.90;;;;;;5070500;28;20036;-57
2022/03/14 04:25:43;;;;;;;15.63;9.50;;;9.10;99.90;;;;;;5052289;28;20029;-58
2022/03/14 04:28:09;;;;;;;15.50;8.68;;;9.10;99.90;;;;;;5055521;28;20039;-58
2022/03/14 04:30:35;;;;;;;15.95;8.77;;;9.10;99.90;;;;;;5062656;28;20478;-58
2022/03/14 04:33:00;;;;;;;14.85;8.25;;;9.10;99.90;;;;;;5065701;28;20313;-58
2022/03/14 04:35:26;;;;;;;12.98;8.25;;;9.10;99.90;;;;;;5070974;28;20027;-58
2022/03/14 04:37:52;;;;;;;17.10;8.73;;;9.10;99.90;;;;;;5057524;28;20126;-57
2022/03/14 04:40:17;;;;;;;13.05;8.90;;;9.10;99.90;;;;;;5058530;28;20379;-56
2022/03/14 04:42:43;;;;;;;13.65;8.60;;;9.00;99.90;;;;;;5051756;28;20119;-57
2022/03/14 04:45:09;;;;;;;19.88;9.57;;;9.10;99.90;;;;;;5057882;28;20025;-57
2022/03/14 04:47:35;;;;;;;14.88;9.40;;;9.00;99.90;;;;;;5049141;28;20099;-59
2022/03/14 04:50:01;;;;;;;15.25;9.63;;;9.00;99.90;;;;;;5065569;28;20494;-57
2022/03/14 04:52:30;;;;;;;15.98;9.65;;;9.00;99.90;;;;;;5059953;28;20079;-55
2022/03/14 04:54:56;;;;;;;16.55;9.68;;;9.00;99.90;;;;;;5058524;28;20577;-57
2022/03/14 04:57:23;;;;;;;14.73;9.60;;;9.00;99.90;;;;;;5052745;28;20098;-56
2022/03/14 04:59:48;;;;;;;18.13;10.43;;;9.00;99.90;;;;;;5052217;28;20104;-58
2022/03/14 05:02:19;;;;;;;18.63;10.00;;;9.00;99.90;;;;;;5053798;28;20104;-58
2022/03/14 05:04:45;;;;;;;15.68;9.43;;;8.90;99.90;;;;;;5050488;28;20033;-57
2022/03/14 05:07:10;;;;;;;15.10;8.70;;;8.90;99.90;;;;;;5047464;28;20224;-59
2022/03/14 05:09:36;;;;;;;16.60;9.82;;;8.90;99.90;;;;;;5055070;28;20044;-57
2022/03/14 05:12:01;;;;;;;17.38;9.70;;;8.90;99.90;;;;;;5061799;28;20016;-58
2022/03/14 05:14:27;;;;;;;14.48;8.63;;;8.90;99.90;;;;;;5051508;28;20553;-60
2022/03/14 05:16:52;;;;;;;14.82;8.65;;;8.90;99.90;;;;;;5061897;28;20108;-56
2022/03/14 05:19:18;;;;;;;11.93;7.65;;;8.90;99.90;;;;;;5059060;28;20036;-58
2022/03/14 05:21:44;;;;;;;14.23;7.85;;;8.90;99.90;;;;;;5047567;28;20037;-56
2022/03/14 05:24:09;;;;;;;16.70;8.13;;;8.80;99.90;;;;;;5056972;28;20020;-58
2022/03/14 05:26:35;;;;;;;13.38;7.97;;;8.90;99.90;;;;;;5056237;28;20021;-55
2022/03/14 05:29:00;;;;;;;14.90;8.43;;;8.80;99.90;;;;;;5048716;28;20033;-57
2022/03/14 05:31:26;;;;;;;11.30;7.20;;;8.90;99.90;;;;;;5059616;28;20068;-59
2022/03/14 05:33:51;;;;;;;12.85;6.45;;;8.80;99.90;;;;;;5056156;28;20033;-57
2022/03/14 05:36:17;;;;;;;10.25;6.60;;;8.80;99.90;;;;;;5070443;28;20040;-58
2022/03/14 05:38:44;;;;;;;12.20;7.05;;;8.90;99.90;;;;;;5057423;28;20033;-56
2022/03/14 05:41:09;;;;;;;10.25;7.43;;;8.80;99.90;;;;;;5052010;28;20025;-58
2022/03/14 05:43:37;;;;;;;11.05;7.13;;;8.80;99.90;;;;;;5057460;28;20368;-56
2022/03/14 05:46:11;;;;;;;10.93;5.78;;;8.80;99.90;;;;;;5059275;28;20025;-59
2022/03/14 05:48:37;;;;;;;11.18;6.32;;;8.80;99.90;;;;;;5048935;28;20025;-57
2022/03/14 05:51:04;;;;;;;8.50;5.70;;;8.80;99.90;;;;;;5048895;28;20025;-57
2022/03/14 05:53:31;;;;;;;11.20;6.30;;;8.80;99.90;;;;;;5048867;28;20024;-54
2022/03/14 05:55:57;;;;;;;9.82;5.60;;;8.80;99.90;;;;;;5049047;28;20052;-58
2022/03/14 05:58:23;;;;;;;7.60;5.15;;;8.80;99.90;;;;;;5052122;28;20052;-56
2022/03/14 06:00:51;;;;;;;8.80;5.70;;;8.80;99.90;;;;;;5048966;28;20566;-58
2022/03/14 06:03:17;;;;;;;14.43;5.30;;;8.80;99.90;;;;;;5050839;28;20021;-58
2022/03/14 06:05:42;;;;;;;12.65;4.85;;;8.80;99.90;;;;;;5043160;28;20043;-55
2022/03/14 06:08:08;;;;;;;8.93;5.40;;;8.70;99.90;;;;;;5046142;28;20028;-58
2022/03/14 06:10:34;;;;;;;10.05;4.90;;;8.70;99.90;;;;;;5057206;28;20147;-58
2022/03/14 06:12:59;;;;;;;10.65;5.43;;;8.80;99.90;;;;;;5049225;28;20053;-58
2022/03/14 06:15:25;;;;;;;8.43;5.28;;;8.80;99.90;;;;;;5050843;28;20112;-56
2022/03/14 06:17:51;;;;;;;18.20;6.32;;;8.70;99.90;;;;;;5049180;28;20024;-54
2022/03/14 06:20:16;;;;;;;12.02;5.97;;;8.70;99.90;;;;;;5049379;28;20025;-58
2022/03/14 06:22:46;;;;;;;11.50;5.78;;;8.70;99.90;;;;;;5049518;28;20117;-56
2022/03/14 06:25:13;;;;;;;9.05;5.80;;;8.70;99.90;;;;;;5048055;28;20017;-60
2022/03/14 06:27:39;;;;;;;11.95;6.35;;;8.70;99.90;;;;;;5050591;28;20070;-56
2022/03/14 06:30:06;;;;;;;12.82;5.85;;;8.70;99.90;;;;;;5027171;28;20052;-58
2022/03/14 06:32:36;;;;;;;14.63;7.18;;;8.70;99.90;;;;;;5049275;28;20381;-59
2022/03/14 06:35:06;;;;;;;13.07;7.22;;;8.60;99.90;;;;;;5046739;28;20420;-58
2022/03/14 06:37:32;;;;;;;13.65;7.43;;;8.60;99.90;;;;;;5048365;28;20120;-59
2022/03/14 06:39:57;;;;;;;14.00;8.52;;;8.60;99.90;;;;;;5048144;28;20120;-57
2022/03/14 06:42:23;;;;;;;13.65;7.20;;;8.60;99.90;;;;;;5048365;28;20032;-59
2022/03/14 06:44:50;;;;;;;17.48;8.30;;;8.60;99.90;;;;;;5052117;28;20450;-60
2022/03/14 06:47:17;;;;;;;11.20;7.40;;;8.50;99.90;;;;;;5054031;28;20033;-58
2022/03/14 06:49:44;;;;;;;19.30;8.05;;;8.50;99.90;;;;;;5049343;28;20032;-58
2022/03/14 06:52:11;;;;;;;19.30;8.30;;;8.60;99.90;;;;;;5064944;28;20501;-59
2022/03/14 06:54:37;;;;;;;14.13;7.47;;;8.60;99.90;;;;;;5055144;28;20107;-59
2022/03/14 06:57:02;;;;;;;10.98;6.75;;;8.60;99.90;;;;;;5061433;28;20124;-56
2022/03/14 06:59:28;;;;;;;17.20;6.90;;;8.60;99.90;;;;;;5058781;28;20331;-58
2022/03/14 07:01:54;;;;;;;15.07;7.57;;;8.70;99.90;;;;;;5057698;28;20063;-58
2022/03/14 07:04:20;;;;;;;14.63;7.40;;;8.70;99.90;;;;;;5056600;28;20028;-58
2022/03/14 07:06:45;;;;;;;17.13;7.20;;;8.80;99.90;;;;;;5049750;28;20033;-60
2022/03/14 07:09:11;;;;;;;17.13;7.15;;;8.80;99.90;;;;;;5052041;28;20399;-59
2022/03/14 07:11:37;;;;;;;11.38;6.82;;;8.80;99.90;;;;;;5058100;28;20025;-58
2022/03/14 07:14:03;;;;;;;11.02;6.03;;;8.90;99.90;;;;;;5072946;28;20436;-58
2022/03/14 07:16:28;;;;;;;10.45;6.53;;;9.00;99.90;;;;;;5070148;28;20039;-58
2022/03/14 07:18:54;;;;;;;11.95;6.43;;;9.00;99.90;;;;;;5052927;28;20036;-59
2022/03/14 07:21:21;;;;;;;14.50;6.18;;;9.00;99.90;;;;;;5057731;28;20108;-61
2022/03/14 07:23:47;;;;;;;10.68;5.80;;;9.00;99.90;;;;;;5041357;28;20577;-57
2022/03/14 07:26:14;;;;;;;12.30;5.88;;;9.00;99.90;;;;;;5053241;28;20036;-57
2022/03/14 07:28:40;;;;;;;11.68;6.20;;;9.00;99.90;;;;;;5052737;28;20021;-58
2022/03/14 07:31:05;;;;;;;8.85;5.65;;;9.10;99.90;;;;;;5060956;28;20185;-56
2022/03/14 07:33:31;;;;;;;15.27;5.97;;;9.20;99.90;;;;;;5047763;28;20146;-58
2022/03/14 07:35:57;;;;;;;9.75;5.78;;;9.20;99.90;;;;;;5050909;28;20035;-59
2022/03/14 07:38:22;;;;;;;9.65;5.15;;;9.20;99.90;;;;;;5045698;28;20025;-58
2022/03/14 07:40:48;;;;;;;10.68;6.10;;;9.30;99.90;;;;;;5051329;28;20082;-58
2022/03/14 07:43:14;;;;;;;11.00;6.97;;;9.30;99.90;;;;;;5051775;28;20032;-56
2022/03/14 07:45:39;;;;;;;11.52;6.07;;;9.30;99.90;;;;;;5050817;28;20043;-58
2022/03/14 07:48:05;;;;;;;9.30;6.13;;;9.40;99.90;;;;;;5048344;28;20075;-59
2022/03/14 07:50:31;;;;;;;12.73;7.35;;;9.50;99.90;;;;;;5052601;28;20033;-59
2022/03/14 07:52:57;;;;;;;12.82;6.22;;;9.50;99.90;;;;;;5035765;28;20051;-58
2022/03/14 07:55:23;;;;;;;9.55;5.20;;;9.50;99.90;;;;;;5051411;28;20017;-58
2022/03/14 07:57:49;;;;;;;9.25;5.90;;;9.50;99.90;;;;;;5050849;28;20087;-58
2022/03/14 08:00:18;;;;;;;10.32;5.95;;;9.60;99.90;;;;;;5051063;28;20482;-59
2022/03/14 08:02:44;;;;;;;12.00;6.00;;;9.70;99.90;;;;;;5049767;28;20032;-57
2022/03/14 08:05:14;;;;;;;11.27;6.03;;;9.80;99.90;;;;;;5049483;28;20487;-57
2022/03/14 08:07:42;;;;;;;9.45;5.88;;;9.80;99.90;;;;;;5050556;28;20037;-60
2022/03/14 08:10:09;;;;;;;10.18;5.20;;;9.70;99.90;;;;;;5050630;28;20025;-58
2022/03/14 08:12:48;;;;;;;11.20;4.68;;;9.70;99.90;;;;;;5051350;28;20083;-56
2022/03/14 08:15:29;;;;;;;9.45;4.80;;;9.70;99.90;;;;;;5050757;28;20033;-56
2022/03/14 08:17:56;;;;;;;13.52;4.75;;;9.80;99.90;;;;;;5049921;28;20029;-59
2022/03/14 08:20:23;;;;;;;11.60;3.50;;;9.70;99.90;;;;;;5048282;28;20029;-57
2022/03/14 08:22:53;;;;;;;9.15;4.18;;;9.80;99.90;;;;;;5051039;28;20025;-58
2022/03/14 08:25:20;;;;;;;9.45;3.80;;;9.90;99.90;;;;;;5050496;28;20040;-58
2022/03/14 08:27:46;;;;;;;10.50;4.30;;;9.90;99.90;;;;;;5051683;28;20514;-58
2022/03/14 08:30:12;;;;;;;13.57;4.93;;;10.00;99.90;;;;;;5050538;28;20655;-58
2022/03/14 08:32:41;;;;;;;9.60;3.75;;;10.00;99.90;;;;;;5051021;28;20810;-59
2022/03/14 08:35:09;;;;;;;8.15;3.45;;;10.00;99.90;;;;;;5043330;28;20036;-58
2022/03/14 08:37:40;;;;;;;12.85;4.93;;;10.00;99.90;;;;;;5046603;28;20028;-59
2022/03/14 08:40:09;;;;;;;8.98;3.72;;;10.20;99.90;;;;;;5048973;28;20091;-59
2022/03/14 08:42:35;;;;;;;24.10;9.43;;;10.30;99.90;;;;;;5049581;28;20075;-60
2022/03/14 08:45:01;;;;;;;13.65;4.32;;;10.40;99.90;;;;;;5031835;28;20033;-59
2022/03/14 08:47:26;;;;;;;16.75;6.68;;;10.50;99.90;;;;;;5049701;28;20103;-59
2022/03/14 08:49:52;;;;;;;10.98;3.88;;;10.60;99.90;;;;;;5049495;28;20036;-59
2022/03/14 08:52:18;;;;;;;10.52;3.50;;;10.60;99.90;;;;;;5050042;28;20072;-58
2022/03/14 08:54:44;;;;;;;7.85;3.67;;;10.70;99.90;;;;;;5049710;28;20060;-59
2022/03/14 08:57:09;;;;;;;9.88;2.92;;;10.70;99.90;;;;;;5048904;28;20032;-58
2022/03/14 08:59:35;;;;;;;18.50;4.03;;;10.80;99.90;;;;;;5049710;28;20029;-58
2022/03/14 09:02:01;;;;;;;10.45;3.08;;;10.70;99.90;;;;;;5050206;28;20033;-58
2022/03/14 09:04:26;;;;;;;12.45;3.75;;;10.80;99.90;;;;;;5051689;28;20086;-59
2022/03/14 09:06:52;;;;;;;12.05;3.95;;;10.80;99.90;;;;;;5049743;28;20036;-58
2022/03/14 09:09:18;;;;;;;8.60;3.08;;;10.80;99.90;;;;;;5049699;28;20638;-58
2022/03/14 09:11:45;;;;;;;6.95;2.33;;;10.90;99.90;;;;;;5049713;28;20028;-58
2022/03/14 09:14:11;;;;;;;10.25;2.65;;;11.00;99.90;;;;;;5049453;28;20083;-59
2022/03/14 09:16:37;;;;;;;9.07;2.78;;;11.00;99.90;;;;;;5047414;28;20021;-59
2022/03/14 09:19:02;;;;;;;7.65;3.38;;;11.20;99.90;;;;;;5048966;28;20036;-60
2022/03/14 09:21:33;;;;;;;8.40;2.95;;;11.20;99.90;;;;;;5049451;28;20033;-59
2022/03/14 09:23:59;;;;;;;6.88;3.45;;;11.20;99.90;;;;;;5049226;28;20070;-59
2022/03/14 09:26:25;;;;;;;10.32;3.15;;;11.30;99.90;;;;;;5049826;28;20104;-58
2022/03/14 09:28:50;;;;;;;7.55;3.20;;;11.30;99.90;;;;;;5049505;28;20037;-56
2022/03/14 09:31:16;;;;;;;7.82;3.03;;;11.20;99.90;;;;;;5048964;28;20035;-59
2022/03/14 09:33:42;;;;;;;7.55;2.65;;;11.20;99.90;;;;;;5049454;28;20031;-59
2022/03/14 09:36:08;;;;;;;6.50;3.03;;;11.20;99.90;;;;;;5049366;28;20028;-57
2022/03/14 09:38:34;;;;;;;14.63;3.15;;;11.10;99.90;;;;;;5049239;28;20497;-58
2022/03/14 09:41:04;;;;;;;7.43;2.92;;;11.10;99.90;;;;;;5048761;28;20120;-57
2022/03/14 09:43:31;;;;;;;10.98;3.40;;;11.00;99.90;;;;;;5049108;28;20021;-58
2022/03/14 09:46:01;;;;;;;5.40;2.28;;;10.90;99.90;;;;;;5047673;28;20029;-58
2022/03/14 09:48:36;;;;;;;10.70;3.67;;;10.90;99.90;;;;;;5050352;28;20029;-58
2022/03/14 09:51:02;;;;;;;6.05;2.58;;;10.90;99.90;;;;;;5049979;28;20035;-57
2022/03/14 09:53:29;;;;;;;6.97;2.42;;;10.90;99.90;;;;;;5049787;28;20059;-58
2022/03/14 09:55:55;;;;;;;4.50;2.05;;;10.90;99.90;;;;;;5049055;28;20044;-56
2022/03/14 09:58:21;;;;;;;6.22;2.88;;;11.00;99.90;;;;;;5087520;23;20048;-59
2022/03/14 10:00:49;;;;;;;11.23;2.47;;;11.10;99.90;;;;;;5068946;28;20028;-60
2022/03/14 10:03:16;;;;;;;5.65;2.20;;;11.10;99.90;;;;;;5069092;28;20029;-61
2022/03/14 10:05:44;;;;;;;5.30;2.35;;;11.20;99.90;;;;;;5068995;28;20025;-61
2022/03/14 10:08:13;;;;;;;8.63;2.97;;;11.20;99.90;;;;;;5057289;28;20029;-61
2022/03/14 10:10:39;;;;;;;5.85;2.00;;;11.30;99.90;;;;;;5049400;28;20021;-58
2022/03/14 10:13:06;;;;;;;7.60;2.50;;;11.60;99.90;;;;;;5049478;28;20028;-62
2022/03/14 10:15:37;;;;;;;9.50;2.08;;;12.00;99.90;;;;;;5048757;28;20494;-60
2022/03/14 10:18:17;;;;;;;5.53;1.83;;;12.40;99.90;;;;;;5049207;28;20096;-61
2022/03/14 10:20:56;;;;;;;8.65;2.20;;;12.50;99.90;;;;;;5049015;28;20021;-59
2022/03/14 10:23:49;;;;;;;3.78;1.75;;;12.70;99.90;;;;;;5048327;28;20025;-59
2022/03/14 10:26:16;;;;;;;6.38;2.20;;;12.80;99.90;;;;;;5047342;28;20040;-61
2022/03/14 10:28:48;;;;;;;6.72;1.77;;;12.70;99.90;;;;;;5049742;28;20025;-61
2022/03/14 10:31:14;;;;;;;2.15;1.38;;;12.90;99.90;;;;;;5049590;28;20075;-61
2022/03/14 10:33:40;;;;;;;3.08;1.60;;;13.20;99.90;;;;;;5049954;28;20021;-62
2022/03/14 10:36:06;;;;;;;3.97;1.40;;;13.20;99.90;;;;;;5049295;28;20029;-58
2022/03/14 10:38:42;;;;;;;6.65;1.67;;;13.10;99.90;;;;;;5050218;28;20033;-62
2022/03/14 10:41:15;;;;;;;2.10;1.30;;;12.90;99.90;;;;;;5049584;28;20507;-59
2022/03/14 10:43:42;;;;;;;4.22;2.05;;;12.60;99.90;;;;;;5050342;28;20036;-64
2022/03/14 10:46:08;;;;;;;3.22;1.67;;;12.60;99.90;;;;;;5054171;28;20128;-59
2022/03/14 10:48:36;;;;;;;4.40;1.45;;;12.40;99.90;;;;;;5051653;28;20526;-58
2022/03/14 10:51:04;;;;;;;5.88;1.55;;;12.40;99.90;;;;;;5054679;28;20484;-59
2022/03/14 10:53:29;;;;;;;5.13;1.27;;;12.50;99.90;;;;;;5053092;28;20029;-61
2022/03/14 10:55:59;;;;;;;2.42;1.50;;;12.60;99.90;;;;;;5051773;28;20044;-61
2022/03/14 10:58:30;;;;;;;3.72;1.88;;;13.10;99.90;;;;;;5053020;28;20033;-62
2022/03/14 11:00:58;;;;;;;4.32;1.73;;;13.40;99.90;;;;;;5052982;28;20420;-61
2022/03/14 11:03:31;;;;;;;6.65;2.40;;;13.60;99.90;;;;;;5053673;28;20088;-61
2022/03/14 11:06:05;;;;;;;4.60;2.42;;;13.40;99.90;;;;;;5050898;28;20178;-57
2022/03/14 11:08:35;;;;;;;8.30;2.33;;;13.30;99.90;;;;;;5051680;28;20037;-61
2022/03/14 11:11:04;;;;;;;3.63;2.05;;;13.10;99.90;;;;;;5051590;28;20060;-62
2022/03/14 11:13:30;;;;;;;7.03;2.08;;;13.10;99.90;;;;;;5051727;28;20021;-59
2022/03/14 11:15:56;;;;;;;5.30;1.90;;;12.80;99.90;;;;;;5047298;28;20033;-61
2022/03/14 11:18:23;;;;;;;9.20;2.88;;;12.50;99.90;;;;;;5052989;28;20025;-60
2022/03/14 11:20:49;;;;;;;3.13;2.40;;;12.60;99.90;;;;;;5072919;28;20139;-64
2022/03/14 11:23:15;;;;;;;6.25;2.30;;;12.50;99.90;;;;;;5052726;28;20100;-62
2022/03/14 11:25:44;;;;;;;6.10;2.35;;;12.60;99.90;;;;;;5051363;28;20029;-64
2022/03/14 11:28:15;;;;;;;9.98;2.33;;;12.80;99.90;;;;;;5052561;28;20021;-61
2022/03/14 11:30:42;;;;;;;6.10;2.40;;;12.90;99.90;;;;;;5052124;28;20049;-62
2022/03/14 11:33:09;;;;;;;6.93;2.53;;;12.80;99.90;;;;;;5052895;28;20029;-62
2022/03/14 11:35:35;;;;;;;4.85;2.03;;;12.80;99.90;;;;;;5053461;28;20017;-60
2022/03/14 11:38:02;;;;;;;3.88;1.88;;;12.80;99.90;;;;;;5052651;28;20040;-60
2022/03/14 11:40:29;;;;;;;5.43;2.00;;;12.70;99.90;;;;;;5060754;28;20029;-62
2022/03/14 11:42:55;;;;;;;6.55;1.70;;;12.80;99.90;;;;;;5065917;28;20084;-61
2022/03/14 11:45:21;;;;;;;4.57;1.70;;;12.80;99.90;;;;;;5051423;28;20013;-61
2022/03/14 11:47:47;;;;;;;4.60;1.80;;;12.90;99.90;;;;;;5051616;28;20028;-59
2022/03/14 11:50:15;;;;;;;8.68;2.28;;;12.90;99.90;;;;;;5055097;28;20021;-58
2022/03/14 11:52:42;;;;;;;6.43;1.67;;;12.70;99.90;;;;;;5050633;28;20033;-61
2022/03/14 11:55:15;;;;;;;6.93;2.00;;;12.60;99.90;;;;;;5051327;28;20652;-60
2022/03/14 11:57:43;;;;;;;4.85;1.30;;;12.60;99.90;;;;;;5052846;28;20414;-60
2022/03/14 12:00:21;;;;;;;4.15;1.60;;;12.50;99.90;;;;;;5052398;28;20032;-60
2022/03/14 12:02:51;;;;;;;7.88;1.48;;;12.50;99.90;;;;;;5052599;28;20029;-60
2022/03/14 12:05:31;;;;;;;3.88;1.63;;;12.30;99.90;;;;;;5057550;28;20037;-62
2022/03/14 12:08:06;;;;;;;5.85;1.65;;;12.30;99.90;;;;;;5071134;28;20474;-62
2022/03/14 12:10:33;;;;;;;3.13;1.30;;;12.30;99.90;;;;;;5052268;28;20021;-62
2022/03/14 12:13:01;;;;;;;3.55;1.20;;;12.30;99.90;;;;;;5051796;28;20079;-62
2022/03/14 12:15:44;;;;;;;2.38;1.00;;;12.50;99.90;;;;;;5050833;28;20122;-61
2022/03/14 12:18:25;;;;;;;1.50;0.93;;;12.50;99.90;;;;;;5051624;28;20036;-60
2022/03/14 12:20:55;;;;;;;6.93;1.30;;;12.70;99.90;;;;;;5067467;28;20028;-60
2022/03/14 12:23:29;;;;;;;2.72;1.20;;;12.70;99.90;;;;;;5040936;28;20037;-59
2022/03/14 12:25:59;;;;;;;2.78;1.40;;;12.80;99.90;;;;;;5050629;28;20044;-63
2022/03/14 12:28:29;;;;;;;4.13;1.40;;;12.80;99.90;;;;;;5048837;28;20025;-62
2022/03/14 12:31:04;;;;;;;3.72;1.60;;;13.00;99.90;;;;;;5050413;28;20116;-63
2022/03/14 12:33:34;;;;;;;2.17;1.52;;;12.70;99.90;;;;;;5039979;28;20029;-61
2022/03/14 12:36:19;;;;;;;2.75;1.15;;;12.90;99.90;;;;;;5032525;28;20396;-60
2022/03/14 12:39:04;;;;;;;4.88;1.52;;;13.10;99.90;;;;;;5051541;28;20418;-56
2022/03/14 12:41:30;;;;;;;6.50;1.95;;;13.00;99.90;;;;;;5050111;28;20103;-59
2022/03/14 12:43:57;;;;;;;3.65;1.60;;;13.20;99.90;;;;;;5051360;28;20167;-63
2022/03/14 12:46:23;;;;;;;3.92;2.00;;;13.50;99.90;;;;;;5050162;28;20398;-62
2022/03/14 12:48:56;;;;;;;5.00;2.00;;;13.70;99.90;;;;;;5051237;28;20028;-60